Time;durP1;ratioP1;P1;durP2;ratioP2;P2;SDS_P1;SDS_P2;PMS_P1;PMS_P2;Temp;Humidity;BMP_temperature;BMP_pressure;BME280_temperature;BME280_humidity;BME280_pressure;Samples;Min_cycle;Max_cycle;Signal;HPM_P1;HPM_P2
2023/11/01 00:00:28;;;;;;;13.13;7.03;;;;;;;18.97;50.72;98813.03;4950619;28;20424;-90
2023/11/01 00:02:53;;;;;;;15.48;7.57;;;;;;;19.07;50.59;98823.53;4949896;28;20030;-93
2023/11/01 00:05:19;;;;;;;13.02;6.38;;;;;;;19.08;50.63;98818.84;4950171;28;20031;-94
2023/11/01 00:07:49;;;;;;;11.98;5.97;;;;;;;18.92;50.34;98786.75;4966057;28;20010;-92
2023/11/01 00:10:15;;;;;;;11.02;6.47;;;;;;;19.02;50.33;98812.03;4949713;28;20468;-93
2023/11/01 00:12:43;;;;;;;9.82;6.03;;;;;;;19.12;50.66;98823.28;4949879;28;20045;-93
2023/11/01 00:15:11;;;;;;;12.35;6.40;;;;;;;19.02;51.19;98812.81;4982010;28;20026;-93
2023/11/01 00:17:37;;;;;;;11.93;6.05;;;;;;;18.97;51.23;98808.38;4966463;28;20389;-93
2023/11/01 00:20:06;;;;;;;10.15;6.10;;;;;;;19.04;50.31;98813.28;4949504;28;20030;-93
2023/11/01 00:22:31;;;;;;;10.32;5.72;;;;;;;18.97;50.10;98804.84;4981738;28;20040;-94
2023/11/01 00:25:06;;;;;;;11.43;6.40;;;;;;;19.06;50.60;98824.66;4949200;28;20034;-93
2023/11/01 00:27:32;;;;;;;9.82;5.38;;;;;;;18.99;50.22;98824.41;4951723;28;20473;-93
2023/11/01 00:30:01;;;;;;;11.35;5.38;;;;;;;18.97;49.12;98849.31;4948669;28;20033;-92
2023/11/01 00:32:30;;;;;;;16.35;6.60;;;;;;;18.97;49.01;98853.97;4948826;28;20492;-93
2023/11/01 00:34:56;;;;;;;11.30;6.13;;;;;;;18.92;48.67;98851.44;4965672;28;20023;-92
2023/11/01 00:37:24;;;;;;;10.20;5.85;;;;;;;18.94;48.51;98847.22;4965555;28;20460;-93
2023/11/01 00:39:50;;;;;;;12.93;5.70;;;;;;;19.03;47.75;98849.06;4949582;28;20030;-94
2023/11/01 00:42:28;;;;;;;11.90;5.30;;;;;;;19.12;46.65;98863.44;4948116;28;20507;-93
2023/11/01 00:44:54;;;;;;;9.02;3.92;;;;;;;19.13;42.59;98865.00;4965845;28;20089;-94
2023/11/01 00:47:19;;;;;;;8.95;4.00;;;;;;;19.08;41.99;98857.84;4948043;28;20030;-93
2023/11/01 00:49:48;;;;;;;7.63;3.65;;;;;;;19.22;41.02;98882.09;4979718;28;20066;-94
2023/11/01 00:52:14;;;;;;;6.93;3.42;;;;;;;19.26;40.36;98887.66;4949261;28;20026;-94
2023/11/01 00:54:42;;;;;;;10.73;3.78;;;;;;;19.30;40.67;98902.22;4947260;28;20603;-93
2023/11/01 00:57:07;;;;;;;6.60;3.60;;;;;;;19.34;40.57;98911.34;4947016;28;20026;-93
2023/11/01 00:59:33;;;;;;;7.07;3.60;;;;;;;19.44;40.36;98931.97;4963832;28;20034;-92
2023/11/01 01:01:59;;;;;;;7.57;3.20;;;;;;;19.45;40.73;98933.56;4948919;28;20483;-93
2023/11/01 01:04:27;;;;;;;9.75;3.33;;;;;;;19.26;42.12;98913.06;4946940;28;20034;-93
2023/11/01 01:06:52;;;;;;;8.45;3.25;;;;;;;19.36;43.61;98934.47;4980255;28;20037;-93
2023/11/01 01:09:18;;;;;;;7.55;2.88;;;;;;;19.29;44.11;98936.94;4948279;28;20125;-94
2023/11/01 01:11:47;;;;;;;6.65;3.30;;;;;;;19.45;44.87;98980.78;4948599;28;20026;-93
2023/11/01 01:14:16;;;;;;;5.57;3.08;;;;;;;19.20;45.65;98949.09;4964356;28;20041;-94
2023/11/01 01:16:54;;;;;;;;;;;;;;;;;;;;;
2023/11/01 01:19:24;;;;;;;6.53;3.42;;;;;;;19.25;46.28;98984.34;4968071;28;20121;-93
2023/11/01 01:21:54;;;;;;;6.25;2.95;;;;;;;19.11;46.48;98974.53;4948374;28;20532;-92
2023/11/01 01:24:23;;;;;;;11.02;4.25;;;;;;;18.98;46.49;98951.03;4948052;28;20111;-93
2023/11/01 01:26:59;;;;;;;;;;;;;;;;;;;;;
2023/11/01 01:29:25;;;;;;;7.70;3.15;;;;;;;18.82;47.02;98959.03;4966894;28;20031;-93
2023/11/01 01:32:02;;;;;;;8.77;3.50;;;;;;;19.04;47.63;98993.38;4963795;28;20034;-93
2023/11/01 01:34:37;;;;;;;;;;;;;;;;;;;;;
2023/11/01 01:37:26;;;;;;;7.20;3.28;;;;;;;18.92;47.96;99001.50;4966649;28;20052;-94
2023/11/01 01:40:06;;;;;;;;;;;;;;;;;;;;;
2023/11/01 01:42:32;;;;;;;6.78;3.30;;;;;;;18.78;48.61;98994.38;4968099;28;20117;-93
2023/11/01 01:44:58;;;;;;;7.85;3.13;;;;;;;18.82;48.66;99002.69;4963605;28;20076;-92
2023/11/01 01:47:26;;;;;;;6.22;3.50;;;;;;;18.90;49.12;99029.09;4964176;28;20033;-92
2023/11/01 01:49:52;;;;;;;8.35;3.50;;;;;;;18.77;49.60;99005.59;4964069;28;20061;-94
2023/11/01 01:52:19;;;;;;;6.10;2.90;;;;;;;18.78;49.32;99021.66;4947822;28;20026;-92
2023/11/01 01:54:44;;;;;;;10.38;3.50;;;;;;;18.69;49.78;99026.31;4962553;28;20021;-93
2023/11/01 01:57:10;;;;;;;6.07;3.28;;;;;;;18.80;50.42;99073.16;4946649;28;20416;-92
2023/11/01 01:59:38;;;;;;;11.82;3.97;;;;;;;18.73;50.47;99065.44;4946564;28;20026;-92
2023/11/01 02:02:04;;;;;;;7.85;3.53;;;;;;;18.77;50.73;99085.47;4963093;28;20026;-94
2023/11/01 02:04:32;;;;;;;8.35;3.65;;;;;;;18.65;50.62;99074.47;4962793;28;20083;-92
2023/11/01 02:07:00;;;;;;;7.32;3.40;;;;;;;18.68;50.66;99065.66;4947007;28;20030;-93
2023/11/01 02:09:26;;;;;;;5.38;3.28;;;;;;;18.66;50.85;99059.72;4945996;28;20448;-92
2023/11/01 02:11:54;;;;;;;6.18;3.28;;;;;;;18.66;50.88;99064.38;4947191;28;20061;-93
2023/11/01 02:14:24;;;;;;;7.88;3.60;;;;;;;18.53;50.98;99060.75;4947326;28;20022;-93
2023/11/01 02:16:59;;;;;;;8.43;3.55;;;;;;;18.59;51.60;99081.25;4947489;28;20059;-93
2023/11/01 02:19:29;;;;;;;9.35;3.47;;;;;;;18.48;51.51;99075.38;4949010;28;20022;-92
2023/11/01 02:21:55;;;;;;;8.35;3.55;;;;;;;18.27;52.11;99058.94;4962176;28;20053;-92
2023/11/01 02:24:24;;;;;;;8.93;4.30;;;;;;;18.29;52.25;99064.88;4946653;28;20472;-93
2023/11/01 02:26:55;;;;;;;8.00;4.47;;;;;;;18.17;52.81;99084.63;4947450;28;20026;-93
2023/11/01 02:29:22;;;;;;;10.10;4.10;;;;;;;18.18;53.23;99088.19;4948275;28;20081;-93
2023/11/01 02:32:03;;;;;;;;;;;;;;;;;;;;;
2023/11/01 02:34:33;;;;;;;6.78;3.80;;;;;;;18.24;53.52;99116.84;4966959;28;20049;-92
2023/11/01 02:36:59;;;;;;;8.60;3.85;;;;;;;18.07;53.82;99101.34;4946900;28;20046;-93
2023/11/01 02:39:24;;;;;;;6.65;3.75;;;;;;;17.95;53.79;99087.59;4945975;28;20114;-92
2023/11/01 02:41:52;;;;;;;6.15;3.80;;;;;;;17.89;53.95;99089.69;4961438;28;20097;-91
2023/11/01 02:44:18;;;;;;;11.27;4.55;;;;;;;17.86;54.38;99087.59;4945575;28;20496;-93
2023/11/01 02:46:44;;;;;;;8.85;3.83;;;;;;;17.88;54.24;99109.09;4946020;28;20058;-94
2023/11/01 02:49:11;;;;;;;9.20;4.18;;;;;;;17.72;54.48;99101.41;4946392;28;20037;-94
2023/11/01 02:51:39;;;;;;;17.58;3.88;;;;;;;17.65;54.31;99097.56;4946630;28;20026;-93
2023/11/01 02:54:04;;;;;;;8.13;3.38;;;;;;;17.75;54.18;99108.13;4946470;28;20045;-93
2023/11/01 02:56:30;;;;;;;8.50;4.50;;;;;;;17.71;53.65;99112.59;4962616;28;20042;-93
2023/11/01 02:58:57;;;;;;;6.25;3.80;;;;;;;17.69;54.05;99098.50;4946991;28;20022;-94
2023/11/01 03:01:23;;;;;;;5.70;3.25;;;;;;;17.73;54.16;99107.63;4945971;28;20026;-92
2023/11/01 03:03:51;;;;;;;6.63;3.63;;;;;;;17.60;54.06;99103.97;4946713;28;20457;-93
2023/11/01 03:06:19;;;;;;;6.47;3.33;;;;;;;17.66;54.07;99107.31;4945572;28;20023;-93
2023/11/01 03:08:48;;;;;;;7.93;3.67;;;;;;;17.67;54.44;99092.59;4962121;28;20034;-93
2023/11/01 03:11:17;;;;;;;8.10;3.78;;;;;;;17.37;54.44;99078.84;4978536;28;20026;-94
2023/11/01 03:13:45;;;;;;;9.05;3.80;;;;;;;17.50;54.51;99094.19;4947119;28;20056;-93
2023/11/01 03:16:12;;;;;;;6.72;3.28;;;;;;;17.54;54.50;99108.78;4946311;28;20560;-95
2023/11/01 03:18:38;;;;;;;6.93;3.40;;;;;;;17.40;54.48;99089.09;4962621;28;20022;-93
2023/11/01 03:21:14;;;;;;;;;;;;;;;;;;;;;
2023/11/01 03:23:50;;;;;;;;;;;;;;;;;;;;;
2023/11/01 03:26:28;;;;;;;;;;;;;;;;;;;;;
2023/11/01 03:28:54;;;;;;;8.13;3.65;;;;;;;17.42;53.89;99099.66;4968527;28;20026;-93
2023/11/01 03:31:22;;;;;;;8.68;2.97;;;;;;;17.52;53.68;99110.22;4965941;28;20049;-93
2023/11/01 03:33:47;;;;;;;9.07;3.22;;;;;;;17.35;53.89;99098.22;4949442;28;20045;-92
2023/11/01 03:36:13;;;;;;;8.23;3.22;;;;;;;17.34;53.77;99093.09;4949449;28;20023;-93
2023/11/01 03:38:38;;;;;;;5.00;3.10;;;;;;;17.42;53.71;99091.50;4949280;28;20018;-93
2023/11/01 03:41:10;;;;;;;8.02;3.20;;;;;;;17.44;53.60;99094.69;4948864;28;20030;-92
2023/11/01 03:43:36;;;;;;;7.03;3.13;;;;;;;17.40;53.68;99088.28;4950750;28;20085;-94
2023/11/01 03:46:02;;;;;;;6.25;2.55;;;;;;;17.34;54.05;99080.28;4949622;28;20026;-92
2023/11/01 03:48:27;;;;;;;5.45;2.83;;;;;;;17.25;53.92;99065.09;4948945;28;20026;-92
2023/11/01 03:50:55;;;;;;;6.32;2.78;;;;;;;17.31;54.29;99080.94;4949647;28;20401;-93
2023/11/01 03:53:24;;;;;;;4.13;2.50;;;;;;;17.33;54.03;99096.94;4949248;28;20022;-92
2023/11/01 03:55:50;;;;;;;6.93;3.22;;;;;;;17.26;54.61;99099.31;4981283;28;20030;-93
2023/11/01 03:58:15;;;;;;;6.70;2.75;;;;;;;17.27;55.08;99093.56;4949275;28;20402;-93
2023/11/01 04:00:41;;;;;;;5.75;2.40;;;;;;;17.23;54.96;99078.22;4949946;28;20062;-93
2023/11/01 04:03:07;;;;;;;5.25;2.70;;;;;;;17.27;54.81;99085.41;4948989;28;20030;-92
2023/11/01 04:05:33;;;;;;;4.43;2.40;;;;;;;17.19;54.60;99071.81;4964675;28;20026;-94
2023/11/01 04:07:58;;;;;;;6.68;2.80;;;;;;;17.32;54.59;99087.94;4981341;28;20026;-92
2023/11/01 04:10:26;;;;;;;5.35;3.13;;;;;;;17.42;54.62;99096.94;4964925;28;20029;-92
2023/11/01 04:12:52;;;;;;;5.90;3.20;;;;;;;17.30;55.23;99070.34;4964639;28;20053;-93
2023/11/01 04:15:21;;;;;;;6.22;3.17;;;;;;;17.37;55.52;99089.75;4981921;28;20019;-92
2023/11/01 04:17:52;;;;;;;8.55;3.80;;;;;;;17.33;55.62;99099.66;4949049;28;20022;-92
2023/11/01 04:20:20;;;;;;;5.80;3.03;;;;;;;17.19;55.66;99066.38;4947471;28;20038;-92
2023/11/01 04:22:56;;;;;;;;;;;;;;;;;;;;;
2023/11/01 04:25:22;;;;;;;5.93;2.65;;;;;;;17.11;55.84;99041.53;4949234;28;20499;-91
2023/11/01 04:27:47;;;;;;;6.50;3.10;;;;;;;17.14;55.91;99059.13;4941136;28;20050;-93
2023/11/01 04:30:16;;;;;;;5.18;3.10;;;;;;;17.20;55.91;99068.75;4945644;28;20022;-92
2023/11/01 04:32:41;;;;;;;8.23;3.22;;;;;;;17.11;55.99;99070.66;4929570;28;20033;-91
2023/11/01 04:35:09;;;;;;;8.20;3.40;;;;;;;17.06;56.00;99054.53;4929790;28;20026;-91
2023/11/01 04:37:41;;;;;;;5.90;3.70;;;;;;;17.15;56.21;99082.53;4929681;28;20023;-92
2023/11/01 04:40:11;;;;;;;7.50;3.15;;;;;;;17.05;56.18;99070.03;4963079;28;20409;-92
2023/11/01 04:42:44;;;;;;;8.30;2.97;;;;;;;17.00;56.82;99067.47;4929742;28;20042;-91
2023/11/01 04:45:13;;;;;;;6.20;3.08;;;;;;;16.95;56.36;99063.00;4932050;28;20037;-92
2023/11/01 04:47:39;;;;;;;8.93;2.95;;;;;;;17.13;56.66;99074.66;4930340;28;20043;-92
2023/11/01 04:50:08;;;;;;;5.95;3.45;;;;;;;17.07;56.62;99059.63;4960922;28;20026;-92
2023/11/01 04:52:41;;;;;;;12.90;3.67;;;;;;;17.02;56.57;99048.91;4930346;28;20042;-92
2023/11/01 04:55:07;;;;;;;20.38;15.00;;;;;;;17.25;56.75;99089.56;4929886;28;20033;-92
2023/11/01 04:57:38;;;;;;;14.60;9.10;;;;;;;17.12;56.92;99072.25;4945930;28;20073;-93
2023/11/01 05:00:12;;;;;;;6.38;4.05;;;;;;;17.09;56.45;99070.97;4932092;28;20464;-92
2023/11/01 05:02:47;;;;;;;9.90;2.97;;;;;;;17.16;56.16;99071.31;4947232;28;20031;-92
2023/11/01 05:05:20;;;;;;;7.00;3.08;;;;;;;17.24;56.25;99077.06;4962319;28;20026;-92
2023/11/01 05:07:47;;;;;;;5.60;2.63;;;;;;;17.17;56.11;99078.34;4956765;28;20089;-93
2023/11/01 05:10:15;;;;;;;13.00;3.60;;;;;;;17.02;56.54;99056.28;4930641;28;20054;-93
2023/11/01 05:12:41;;;;;;;7.30;2.63;;;;;;;17.12;56.23;99064.09;4956154;28;20034;-92
2023/11/01 05:15:10;;;;;;;6.13;2.85;;;;;;;17.04;56.44;99059.47;4948259;28;20069;-92
2023/11/01 05:17:36;;;;;;;7.82;2.78;;;;;;;17.13;56.08;99074.66;4951811;28;20121;-92
2023/11/01 05:20:04;;;;;;;7.03;2.63;;;;;;;17.23;56.23;99070.03;4930053;28;20030;-93
2023/11/01 05:22:32;;;;;;;5.22;2.65;;;;;;;17.11;56.50;99055.16;4964411;28;20034;-93
2023/11/01 05:25:13;;;;;;;5.97;3.30;;;;;;;17.13;56.67;99069.22;4964435;28;20030;-94
2023/11/01 05:27:52;;;;;;;;;;;;;;;;;;;;;
2023/11/01 05:30:22;;;;;;;11.30;4.30;;;;;;;17.08;57.08;99066.69;4953950;28;20031;-94
2023/11/01 05:32:48;;;;;;;9.32;4.30;;;;;;;17.16;56.86;99079.50;4945296;28;20038;-93
2023/11/01 05:35:14;;;;;;;8.10;4.03;;;;;;;17.38;57.43;99113.09;4949735;28;20023;-93
2023/11/01 05:37:53;;;;;;;;;;;;;;;;;;;;;
2023/11/01 05:40:18;;;;;;;6.45;2.78;;;;;;;17.26;56.32;99096.59;4948848;28;20404;-92
2023/11/01 05:42:55;;;;;;;12.15;4.20;;;;;;;17.27;56.72;99107.19;4927857;28;20064;-91
2023/11/01 05:45:23;;;;;;;5.68;2.92;;;;;;;17.34;56.61;99120.31;4931123;28;20034;-94
2023/11/01 05:47:51;;;;;;;10.45;4.28;;;;;;;17.31;57.56;99120.94;4929311;28;20039;-93
2023/11/01 05:50:23;;;;;;;5.43;2.83;;;;;;;17.31;57.30;99120.94;4930820;28;20034;-93
2023/11/01 05:52:51;;;;;;;8.40;3.20;;;;;;;17.32;56.63;99115.16;4929550;28;20118;-93
2023/11/01 05:55:16;;;;;;;10.82;4.70;;;;;;;17.40;56.79;99126.41;4944416;28;20034;-92
2023/11/01 05:57:42;;;;;;;7.65;5.45;;;;;;;17.36;56.90;99123.50;4929232;28;20477;-93
2023/11/01 06:00:10;;;;;;;6.45;2.67;;;;;;;17.43;56.55;99120.28;4949569;28;20027;-93
2023/11/01 06:02:37;;;;;;;6.63;2.85;;;;;;;17.46;56.36;99128.63;4934269;28;20041;-93
2023/11/01 06:05:03;;;;;;;6.60;2.85;;;;;;;17.43;55.61;99109.41;4941030;28;20035;-92
2023/11/01 06:07:30;;;;;;;3.08;2.03;;;;;;;17.62;55.51;99130.84;4933876;28;20030;-93
2023/11/01 06:09:59;;;;;;;9.70;2.72;;;;;;;17.57;55.04;99110.84;4947408;28;20034;-94
2023/11/01 06:12:51;;;;;;;8.02;4.38;;;;;;;17.72;54.64;99120.47;4965534;28;20034;-94
2023/11/01 06:16:04;;;;;;;;;;;;;;;;;;;;;
2023/11/01 06:18:37;;;;;;;14.43;5.07;;;;;;;17.82;54.32;99122.03;4936204;29;20043;-92
2023/11/01 06:21:05;;;;;;;5.55;3.42;;;;;;;18.01;54.13;99139.97;4910954;29;20047;-92
2023/11/01 06:23:33;;;;;;;6.15;2.33;;;;;;;17.87;54.63;99129.28;4948893;29;20035;-92
2023/11/01 06:25:59;;;;;;;10.13;2.78;;;;;;;17.94;54.76;99140.47;4942175;29;20028;-91
2023/11/01 06:28:38;;;;;;;5.50;2.35;;;;;;;17.88;54.35;99125.44;4940130;29;20027;-91
2023/11/01 06:31:07;;;;;;;7.47;2.60;;;;;;;18.01;53.98;99134.53;4925425;29;20485;-91
2023/11/01 06:33:52;;;;;;;9.43;3.13;;;;;;;18.08;54.44;99141.09;4943273;28;20039;-92
2023/11/01 06:36:28;;;;;;;6.70;2.55;;;;;;;18.03;55.02;99130.34;4946490;28;20101;-93
2023/11/01 06:39:17;;;;;;;7.30;2.75;;;;;;;18.11;54.82;99140.44;4937314;28;20034;-93
2023/11/01 06:41:52;;;;;;;;;;;;;;;;;;;;;
2023/11/01 06:44:19;;;;;;;5.25;2.05;;;;;;;18.03;54.39;99124.91;4944236;28;20547;-90
2023/11/01 06:46:46;;;;;;;8.45;2.28;;;;;;;18.01;54.99;99129.09;4975902;28;20038;-87
2023/11/01 06:49:13;;;;;;;5.53;2.50;;;;;;;18.00;55.22;99135.66;4966987;28;20082;-92
2023/11/01 06:52:51;;;;;;;4.93;1.90;;;;;;;18.11;54.24;99161.44;4982243;28;20106;-95
2023/11/01 06:55:59;;;;;;;;;;;;;;;;;;;;;
2023/11/01 06:58:11;;;;;;;5.90;3.20;;;;;;;17.98;54.42;99144.16;4969643;28;20041;-92
2023/11/01 07:00:37;;;;;;;8.77;3.13;;;;;;;17.96;54.97;99139.03;4966287;28;20031;-92
2023/11/01 07:03:06;;;;;;;7.00;1.95;;;;;;;18.13;54.03;99170.88;4968159;28;20038;-93
2023/11/01 07:05:37;;;;;;;5.90;2.47;;;;;;;18.23;53.84;99167.03;4966657;28;20109;-96
2023/11/01 07:08:04;;;;;;;6.10;2.70;;;;;;;18.23;54.38;99153.41;4974655;28;20089;-93
2023/11/01 07:10:29;;;;;;;9.10;3.00;;;;;;;18.37;54.14;99167.63;5001502;28;20038;-92
2023/11/01 07:13:05;;;;;;;3.85;2.03;;;;;;;18.49;53.58;99163.41;4980106;28;20064;-94
2023/11/01 07:15:30;;;;;;;6.07;2.13;;;;;;;18.68;53.09;99182.94;4970174;28;20049;-89
2023/11/01 07:17:56;;;;;;;5.30;2.35;;;;;;;18.56;52.03;99158.28;5006259;28;20480;-87
2023/11/01 07:20:23;;;;;;;6.85;3.30;;;;;;;18.73;51.68;99199.09;4999714;28;20030;-91
2023/11/01 07:22:49;;;;;;;7.32;2.78;;;;;;;18.53;52.14;99158.91;4995073;28;20041;-88
2023/11/01 07:25:18;;;;;;;5.30;2.50;;;;;;;18.64;52.62;99173.78;4978897;28;20018;-89
2023/11/01 07:27:59;;;;;;;;;;;;;;;;;;;;;
2023/11/01 07:30:24;;;;;;;7.82;2.78;;;;;;;18.78;51.64;99181.78;4986896;28;20105;-91
2023/11/01 07:32:55;;;;;;;5.05;2.30;;;;;;;18.80;51.20;99187.72;4974546;28;20068;-92
2023/11/01 07:35:30;;;;;;;7.28;2.60;;;;;;;18.84;51.03;99190.56;4968744;28;20015;-94
2023/11/01 07:37:56;;;;;;;8.98;2.00;;;;;;;18.74;51.15;99178.09;4975840;28;20047;-90
2023/11/01 07:40:22;;;;;;;8.27;2.15;;;;;;;18.83;51.21;99173.41;4969960;28;20030;-91
2023/11/01 07:42:50;;;;;;;18.20;2.47;;;;;;;18.85;51.00;99173.09;4982523;28;20113;-92
2023/11/01 07:45:21;;;;;;;16.98;2.53;;;;;;;18.88;51.84;99181.41;5018801;28;20038;-95
2023/11/01 07:47:47;;;;;;;;;;;;;;;19.07;51.45;99196.56;4987500;28;20041;-93
2023/11/01 07:50:13;;;;;;;5.13;2.00;;;;;;;19.01;51.91;99182.31;4987666;28;19957;-93
2023/11/01 07:52:39;;;;;;;12.18;2.35;;;;;;;19.05;50.96;99171.53;4988962;28;20448;-95
2023/11/01 07:55:18;;;;;;;18.50;2.88;;;;;;;19.09;51.15;99172.47;4987607;28;20129;-94
2023/11/01 07:57:49;;;;;;;6.05;2.05;;;;;;;19.18;50.48;99181.44;4991765;28;20123;-92
2023/11/01 08:00:26;;;;;;;3.05;1.52;;;;;;;19.21;50.40;99174.50;4993115;28;20140;-95
2023/11/01 08:02:53;;;;;;;8.13;4.20;;;;;;;19.31;51.28;99183.09;5008015;28;20046;-95
2023/11/01 08:05:22;;;;;;;5.90;2.72;;;;;;;19.27;50.02;99179.44;4971597;28;20052;-93
2023/11/01 08:08:03;;;;;;;;;;;;;;;;;;;;;
2023/11/01 08:10:51;;;;;;;7.70;1.52;;;;;;;19.41;49.82;99181.91;5013879;28;20082;-95
2023/11/01 08:13:29;;;;;;;4.03;1.27;;;;;;;19.47;49.24;99188.78;5010749;28;20056;-95
2023/11/01 08:16:47;;;;;;;2.92;1.20;;;;;;;19.53;48.93;99187.44;5007489;28;20045;-95
2023/11/01 08:26:23;;;;;;;;;;;;;;;;;;;;;
2023/11/01 08:33:02;;;;;;;5.25;1.70;;;;;;;19.80;47.79;99177.16;4931994;28;20026;-95
2023/11/01 08:36:16;;;;;;;;;;;;;;;;;;;;;
2023/11/01 08:39:16;;;;;;;;;;;;;;;;;;;;;
2023/11/01 09:00:50;;;;;;;5.07;1.50;;;;;;;19.62;50.93;99238.47;4996507;28;20057;-95
2023/11/01 09:03:25;;;;;;;6.35;1.77;;;;;;;19.73;50.96;99253.38;4952182;28;20048;-93
2023/11/01 09:09:16;;;;;;;;;;;;;;;;;;;;;
2023/11/01 09:12:04;;;;;;;;;;;;;;;;;;;;;
2023/11/01 09:15:30;;;;;;;;;;;;;;;;;;;;;
2023/11/01 09:17:53;;;;;;;4.20;1.30;;;;;;;20.03;47.80;99245.13;4973070;28;20054;-91
2023/11/01 09:20:18;;;;;;;3.05;1.25;;;;;;;19.95;48.42;99249.50;4952904;28;20045;-92
2023/11/01 09:22:46;;;;;;;2.83;1.33;;;;;;;19.67;48.73;99230.06;4960710;28;20045;-89
2023/11/01 09:25:18;;;;;;;3.97;1.65;;;;;;;19.62;49.04;99239.28;4946118;28;20037;-90
2023/11/01 09:27:46;;;;;;;3.05;1.40;;;;;;;19.66;48.63;99273.00;4952924;28;20065;-90
2023/11/01 09:30:15;;;;;;;5.43;1.63;;;;;;;19.53;48.91;99252.19;4945963;28;20057;-89
2023/11/01 09:32:41;;;;;;;3.50;1.20;;;;;;;19.42;48.30;99232.66;4949057;28;20473;-89
2023/11/01 09:35:12;;;;;;;2.75;1.33;;;;;;;19.43;48.14;99247.13;4979407;28;20026;-91
2023/11/01 09:37:41;;;;;;;5.63;1.55;;;;;;;19.36;48.15;99256.63;4985132;28;20188;-92
2023/11/01 09:40:21;;;;;;;3.17;1.48;;;;;;;19.16;48.31;99241.00;4966450;28;20041;-92
2023/11/01 09:57:20;;;;;;;;;;;;;;;;;;;;;
2023/11/01 10:03:30;;;;;;;2.83;1.60;;;;;;;19.55;48.86;99247.22;5372380;23;20135;-94
2023/11/01 10:06:24;;;;;;;;;;;;;;;;;;;;;
2023/11/01 10:08:54;;;;;;;5.40;1.77;;;;;;;19.89;48.59;99265.31;4987856;28;20457;-96
2023/11/01 10:11:32;;;;;;;;;;;;;;;;;;;;;
2023/11/01 10:14:20;;;;;;;5.90;1.83;;;;;;;19.60;49.34;99227.88;5007657;28;20085;-94
2023/11/01 10:16:59;;;;;;;3.08;2.05;;;;;;;19.72;49.19;99258.03;4967664;28;20147;-94
2023/11/01 10:19:27;;;;;;;3.63;2.10;;;;;;;19.57;49.36;99253.94;4966465;28;20505;-93
2023/11/01 10:25:22;;;;;;;5.28;2.10;;;;;;;19.77;48.45;99246.91;4978593;28;20053;-93
2023/11/01 10:27:48;;;;;;;2.22;1.58;;;;;;;19.84;47.25;99257.31;4994846;28;20408;-93
2023/11/01 10:30:21;;;;;;;4.45;1.80;;;;;;;19.91;47.38;99252.09;4981530;28;20034;-93
2023/11/01 10:33:20;;;;;;;;;;;;;;;;;;;;;
2023/11/01 10:36:11;;;;;;;;;;;;;;;;;;;;;
2023/11/01 10:38:40;;;;;;;5.32;2.00;;;;;;;19.90;46.63;99255.16;4972363;28;20122;-93
2023/11/01 10:41:18;;;;;;;3.65;1.70;;;;;;;19.92;46.32;99239.22;4961673;28;20088;-94
2023/11/01 10:43:55;;;;;;;;;;;;;;;;;;;;;
2023/11/01 10:49:42;;;;;;;7.57;2.22;;;;;;;20.03;45.93;99237.72;4989674;28;20030;-93
2023/11/01 10:52:17;;;;;;;8.00;2.30;;;;;;;20.07;46.45;99226.91;4966026;28;20046;-95
2023/11/01 10:54:45;;;;;;;5.38;2.20;;;;;;;20.16;46.20;99235.81;4948515;28;20053;-89
2023/11/01 10:57:12;;;;;;;2.42;1.63;;;;;;;20.01;46.47;99215.38;4997669;28;20449;-88
2023/11/01 10:59:45;;;;;;;2.42;1.60;;;;;;;19.93;46.90;99230.72;4964087;28;20038;-88
2023/11/01 11:02:18;;;;;;;3.58;2.05;;;;;;;19.99;46.82;99240.31;4967477;28;20053;-88
2023/11/01 11:05:02;;;;;;;3.95;2.08;;;;;;;19.88;47.45;99220.00;4965637;28;20054;-89
2023/11/01 11:07:42;;;;;;;5.97;1.67;;;;;;;19.86;47.03;99222.25;4981859;28;20420;-91
2023/11/01 11:10:22;;;;;;;5.45;1.70;;;;;;;19.80;46.75;99215.41;4956890;28;20058;-91
2023/11/01 11:13:22;;;;;;;;;;;;;;;;;;;;;
2023/11/01 11:18:55;;;;;;;;;;;;;;;;;;;;;
2023/11/01 11:22:10;;;;;;;3.88;2.10;;;;;;;19.76;47.34;99234.38;4997527;28;20453;-94
2023/11/01 11:24:41;;;;;;;5.88;2.55;;;;;;;19.74;47.38;99220.25;4968493;28;20040;-93
2023/11/01 11:28:05;;;;;;;4.40;2.13;;;;;;;19.83;46.40;99233.84;4987113;28;20030;-93
2023/11/01 11:31:00;;;;;;;4.72;2.10;;;;;;;19.78;46.51;99220.41;5012646;28;20074;-93
2023/11/01 11:33:58;;;;;;;6.72;2.40;;;;;;;19.57;46.22;99193.84;5001708;28;20029;-96
2023/11/01 11:36:35;;;;;;;2.25;1.70;;;;;;;19.53;45.66;99197.59;4989609;28;20040;-92
2023/11/01 11:39:04;;;;;;;4.65;1.95;;;;;;;19.59;45.86;99216.16;4972455;28;20034;-91
2023/11/01 11:41:36;;;;;;;3.13;1.92;;;;;;;19.76;45.90;99230.84;4951375;28;20026;-93
2023/11/01 11:45:00;;;;;;;;;;;;;;;;;;;;;
2023/11/01 11:48:08;;;;;;;;;;;;;;;;;;;;;
2023/11/01 11:51:15;;;;;;;;;;;;;;;;;;;;;
2023/11/01 11:53:53;;;;;;;;;;;;;;;;;;;;;
2023/11/01 11:56:50;;;;;;;;;;;;;;;;;;;;;
2023/11/01 11:59:50;;;;;;;4.97;2.03;;;;;;;20.07;44.70;99224.97;4970842;28;20554;-93
2023/11/01 12:02:57;;;;;;;;;;;;;;;;;;;;;
2023/11/01 12:05:26;;;;;;;3.42;1.92;;;;;;;20.27;44.42;99234.25;5000905;28;20133;-94
2023/11/01 12:14:13;;;;;;;;;;;;;;;;;;;;;
2023/11/01 12:17:39;;;;;;;4.13;2.25;;;;;;;20.46;43.16;99222.84;4923021;29;20136;-96
2023/11/01 12:24:26;;;;;;;;;;;;;;;;;;;;;
2023/11/01 12:27:46;;;;;;;;;;;;;;;;;;;;;
2023/11/01 12:36:19;;;;;;;;;;;;;;;;;;;;;
2023/11/01 12:39:20;;;;;;;7.00;2.40;;;;;;;19.86;46.66;99196.84;4964502;28;20046;-96
2023/11/01 12:42:46;;;;;;;5.78;2.33;;;;;;;19.76;46.53;99201.59;4876672;29;20041;-95
2023/11/01 12:45:49;;;;;;;5.93;2.38;;;;;;;19.57;46.90;99203.97;4847761;29;20559;-93
2023/11/01 12:48:27;;;;;;;;;;;;;;;;;;;;;
2023/11/01 12:50:53;;;;;;;4.10;2.22;;;;;;;19.64;47.01;99219.84;4849950;29;20128;-92
2023/11/01 12:53:29;;;;;;;;;;;;;;;;;;;;;
2023/11/01 12:56:17;;;;;;;;;;;;;;;;;;;;;
2023/11/01 12:59:02;;;;;;;;;;;;;;;;;;;;;
2023/11/01 13:01:33;;;;;;;4.47;2.70;;;;;;;19.40;46.95;99210.34;4887349;29;20044;-93
2023/11/01 13:03:59;;;;;;;6.30;2.90;;;;;;;19.33;46.78;99201.88;4885906;29;20110;-93
2023/11/01 13:09:43;;;;;;;5.93;3.28;;;;;;;19.31;47.15;99206.88;4905564;29;20037;-92
2023/11/01 13:13:08;;;;;;;6.05;3.22;;;;;;;19.43;46.71;99226.06;4880642;29;20041;-94
2023/11/01 13:30:17;;;;;;;;;;;;;;;;;;;;;
2023/11/01 13:43:09;;;;;;;;;;;;;;;;;;;;;
2023/11/01 13:45:38;;;;;;;9.40;6.47;;;;;;;18.82;47.41;99181.91;4884894;29;20054;-94
2023/11/01 13:48:30;;;;;;;9.15;5.90;;;;;;;18.98;47.23;99207.53;4907931;29;20027;-92
2023/11/01 13:51:14;;;;;;;;;;;;;;;;;;;;;
2023/11/01 13:53:45;;;;;;;10.40;7.20;;;;;;;18.85;47.35;99179.34;4917561;29;20091;-92
2023/11/01 13:56:10;;;;;;;15.02;7.90;;;;;;;18.84;47.47;99190.56;4895023;29;20035;-93
2023/11/01 13:58:53;;;;;;;11.20;7.35;;;;;;;18.86;47.46;99200.03;4924671;29;20024;-95
2023/11/01 14:01:28;;;;;;;11.82;8.05;;;;;;;18.90;47.85;99209.16;4898599;29;20030;-94
2023/11/01 14:03:58;;;;;;;11.27;7.70;;;;;;;18.82;47.56;99198.28;4908626;29;20055;-93
2023/11/01 14:07:11;;;;;;;;;;;;;;;;;;;;;
2023/11/01 14:10:09;;;;;;;10.60;7.35;;;;;;;18.55;48.02;99187.47;4865517;29;20141;-96
2023/11/01 14:23:31;;;;;;;;;;;;;;;;;;;;;
2023/11/01 14:40:56;;;;;;;7.20;4.80;;;;;;;18.33;48.63;99202.13;2383032;22;20457;31
2023/11/01 14:43:32;;;;;;;;;;;;;;;;;;;;;
2023/11/01 14:46:44;;;;;;;7.97;4.78;;;;;;;18.26;49.18;99207.28;4952319;28;20400;-95
2023/11/01 14:49:13;;;;;;;10.73;4.10;;;;;;;18.02;48.83;99185.19;4965587;28;20042;-95
2023/11/01 14:55:37;;;;;;;;;;;;;;;;;;;;;
2023/11/01 14:58:04;;;;;;;6.85;4.00;;;;;;;18.09;48.83;99212.72;4909797;29;20043;-94
2023/11/01 15:00:48;;;;;;;9.45;4.72;;;;;;;18.05;49.80;99219.94;4923737;29;20032;-94
2023/11/01 15:03:27;;;;;;;9.15;3.65;;;;;;;17.90;49.32;99199.44;4920575;29;20040;-95
2023/11/01 15:05:55;;;;;;;6.93;4.10;;;;;;;17.98;49.54;99223.97;4888514;29;20032;-96
2023/11/01 15:11:49;;;;;;;5.93;3.53;;;;;;;17.82;49.94;99222.00;4905463;29;20091;-96
2023/11/01 15:26:03;;;;;;;;;;;;;;;;;;;;;
2023/11/01 15:33:18;;;;;;;;;;;;;;;;;;;;;
2023/11/01 15:35:33;;;;;;;5.57;3.53;;;;;;;17.33;51.45;99230.28;4759205;30;20177;-94
2023/11/01 15:38:17;;;;;;;13.27;5.95;;;;;;;17.35;52.21;99247.09;4761471;30;20047;-93
2023/11/01 15:41:27;;;;;;;;;;;;;;;;;;;;;
2023/11/01 15:43:58;;;;;;;12.77;6.43;;;;;;;17.17;52.41;99236.16;4798741;29;20123;-92
2023/11/01 15:46:36;;;;;;;9.47;5.30;;;;;;;17.09;52.42;99233.41;4832991;29;20404;-93
2023/11/01 15:49:27;;;;;;;5.88;3.90;;;;;;;17.15;52.18;99243.84;4827876;29;20530;-95
2023/11/01 15:52:05;;;;;;;4.53;3.23;;;;;;;17.11;52.43;99252.94;4885080;29;20042;-95